Terminal Aerodrome Forecast
Issued by NWS

Home | Current Version | Previous Version | Text Only | Print | Product List | Glossary On
Versions: 1 2 3 4 5 6 7 8 9 10 11 12 13 14 15
000
FTUS42 KTBW 012339
TAFLAL
TAF
KLAL 012339Z 0200/0224 20006KT P6SM VCSH SCT025 BKN090 OVC250
      TEMPO 0202/0204 23015G25KT 3SM SHRA BKN025
     FM021200 18006KT P6SM VCTS SCT025CB OVC100
     FM021400 20010KT P6SM VCTS SCT025CB OVC100
     FM022200 23012KT P6SM VCTS SCT025CB OVC100
      AMD NOT SKED 0203/0212=

USA.gov is the U.S. government's official web portal to all federal, state and local government web resources and services.